sensor_id;sensor_type;location;lat;lon;timestamp;P1;durP1;ratioP1;P2;durP2;ratioP2
82869;SDS011;72645;47.136;15.420;2024-03-02T00:00:22;37.40;;;17.90;;
82869;SDS011;72645;47.136;15.420;2024-03-02T00:02:54;36.00;;;18.10;;
82869;SDS011;72645;47.136;15.420;2024-03-02T00:05:25;34.80;;;18.10;;
82869;SDS011;72645;47.136;15.420;2024-03-02T00:07:57;35.60;;;17.50;;
82869;SDS011;72645;47.136;15.420;2024-03-02T00:10:32;37.30;;;18.40;;
82869;SDS011;72645;47.136;15.420;2024-03-02T00:13:08;40.40;;;19.00;;
82869;SDS011;72645;47.136;15.420;2024-03-02T00:15:42;38.40;;;19.50;;
82869;SDS011;72645;47.136;15.420;2024-03-02T00:18:18;36.30;;;19.00;;
82869;SDS011;72645;47.136;15.420;2024-03-02T00:20:50;38.30;;;18.20;;
82869;SDS011;72645;47.136;15.420;2024-03-02T00:23:27;37.80;;;18.00;;
82869;SDS011;72645;47.136;15.420;2024-03-02T00:25:59;41.20;;;19.50;;
82869;SDS011;72645;47.136;15.420;2024-03-02T00:28:31;49.90;;;20.50;;
82869;SDS011;72645;47.136;15.420;2024-03-02T00:31:03;48.50;;;23.80;;
82869;SDS011;72645;47.136;15.420;2024-03-02T00:33:36;52.90;;;22.60;;
82869;SDS011;72645;47.136;15.420;2024-03-02T00:36:10;54.20;;;24.70;;
82869;SDS011;72645;47.136;15.420;2024-03-02T00:38:46;53.20;;;23.80;;
82869;SDS011;72645;47.136;15.420;2024-03-02T00:41:21;52.10;;;24.20;;
82869;SDS011;72645;47.136;15.420;2024-03-02T00:43:56;52.00;;;23.20;;
82869;SDS011;72645;47.136;15.420;2024-03-02T00:46:33;51.40;;;22.50;;
82869;SDS011;72645;47.136;15.420;2024-03-02T00:49:05;53.60;;;23.00;;
82869;SDS011;72645;47.136;15.420;2024-03-02T00:51:49;54.10;;;23.70;;
82869;SDS011;72645;47.136;15.420;2024-03-02T00:54:22;54.20;;;23.70;;
82869;SDS011;72645;47.136;15.420;2024-03-02T00:56:54;52.10;;;24.00;;
82869;SDS011;72645;47.136;15.420;2024-03-02T00:59:26;54.70;;;24.00;;
82869;SDS011;72645;47.136;15.420;2024-03-02T01:01:57;55.50;;;23.60;;
82869;SDS011;72645;47.136;15.420;2024-03-02T01:04:29;58.30;;;24.50;;
82869;SDS011;72645;47.136;15.420;2024-03-02T01:07:00;53.70;;;23.20;;
82869;SDS011;72645;47.136;15.420;2024-03-02T01:09:31;48.10;;;22.70;;
82869;SDS011;72645;47.136;15.420;2024-03-02T01:12:02;45.20;;;20.60;;
82869;SDS011;72645;47.136;15.420;2024-03-02T01:14:33;47.70;;;21.40;;
82869;SDS011;72645;47.136;15.420;2024-03-02T01:17:05;48.80;;;22.50;;
82869;SDS011;72645;47.136;15.420;2024-03-02T01:19:36;46.30;;;21.10;;
82869;SDS011;72645;47.136;15.420;2024-03-02T01:22:08;55.70;;;22.80;;
82869;SDS011;72645;47.136;15.420;2024-03-02T01:24:40;56.00;;;23.40;;
82869;SDS011;72645;47.136;15.420;2024-03-02T01:27:11;48.90;;;20.70;;
82869;SDS011;72645;47.136;15.420;2024-03-02T01:29:42;44.40;;;18.40;;
82869;SDS011;72645;47.136;15.420;2024-03-02T01:32:13;41.50;;;16.80;;
82869;SDS011;72645;47.136;15.420;2024-03-02T01:34:45;39.70;;;18.80;;
82869;SDS011;72645;47.136;15.420;2024-03-02T01:37:16;44.90;;;20.10;;
82869;SDS011;72645;47.136;15.420;2024-03-02T01:39:47;39.80;;;18.30;;
82869;SDS011;72645;47.136;15.420;2024-03-02T01:42:18;42.60;;;18.90;;
82869;SDS011;72645;47.136;15.420;2024-03-02T01:44:50;39.90;;;17.80;;
82869;SDS011;72645;47.136;15.420;2024-03-02T01:47:21;47.10;;;20.20;;
82869;SDS011;72645;47.136;15.420;2024-03-02T01:49:52;42.90;;;21.00;;
82869;SDS011;72645;47.136;15.420;2024-03-02T01:52:23;46.00;;;20.50;;
82869;SDS011;72645;47.136;15.420;2024-03-02T01:54:54;42.00;;;20.70;;
82869;SDS011;72645;47.136;15.420;2024-03-02T01:57:25;45.40;;;19.10;;
82869;SDS011;72645;47.136;15.420;2024-03-02T01:59:56;42.70;;;20.40;;
82869;SDS011;72645;47.136;15.420;2024-03-02T02:02:28;41.90;;;20.80;;
82869;SDS011;72645;47.136;15.420;2024-03-02T02:04:59;42.70;;;19.90;;
82869;SDS011;72645;47.136;15.420;2024-03-02T02:07:30;41.00;;;18.90;;
82869;SDS011;72645;47.136;15.420;2024-03-02T02:10:02;39.90;;;18.80;;
82869;SDS011;72645;47.136;15.420;2024-03-02T02:12:34;43.10;;;21.20;;
82869;SDS011;72645;47.136;15.420;2024-03-02T02:15:14;43.10;;;19.80;;
82869;SDS011;72645;47.136;15.420;2024-03-02T02:17:52;47.40;;;19.70;;
82869;SDS011;72645;47.136;15.420;2024-03-02T02:20:24;42.40;;;18.90;;
82869;SDS011;72645;47.136;15.420;2024-03-02T02:22:58;42.70;;;20.30;;
82869;SDS011;72645;47.136;15.420;2024-03-02T02:25:31;44.30;;;18.80;;
82869;SDS011;72645;47.136;15.420;2024-03-02T02:28:02;44.70;;;18.70;;
82869;SDS011;72645;47.136;15.420;2024-03-02T02:30:34;44.80;;;19.50;;
82869;SDS011;72645;47.136;15.420;2024-03-02T02:33:05;43.00;;;19.40;;
82869;SDS011;72645;47.136;15.420;2024-03-02T02:35:36;43.10;;;19.00;;
82869;SDS011;72645;47.136;15.420;2024-03-02T02:38:07;42.00;;;19.50;;
82869;SDS011;72645;47.136;15.420;2024-03-02T02:40:38;45.90;;;20.30;;
82869;SDS011;72645;47.136;15.420;2024-03-02T02:43:09;44.40;;;20.70;;
82869;SDS011;72645;47.136;15.420;2024-03-02T02:45:40;47.10;;;21.70;;
82869;SDS011;72645;47.136;15.420;2024-03-02T02:48:11;40.90;;;20.10;;
82869;SDS011;72645;47.136;15.420;2024-03-02T02:50:42;41.50;;;18.90;;
82869;SDS011;72645;47.136;15.420;2024-03-02T02:53:14;40.70;;;18.20;;
82869;SDS011;72645;47.136;15.420;2024-03-02T02:55:44;36.10;;;16.10;;
82869;SDS011;72645;47.136;15.420;2024-03-02T02:58:15;44.90;;;19.70;;
82869;SDS011;72645;47.136;15.420;2024-03-02T03:00:46;42.90;;;19.60;;
82869;SDS011;72645;47.136;15.420;2024-03-02T03:03:18;43.10;;;20.20;;
82869;SDS011;72645;47.136;15.420;2024-03-02T03:05:49;43.20;;;19.10;;
82869;SDS011;72645;47.136;15.420;2024-03-02T03:08:20;42.50;;;19.60;;
82869;SDS011;72645;47.136;15.420;2024-03-02T03:10:52;42.50;;;22.00;;
82869;SDS011;72645;47.136;15.420;2024-03-02T03:13:23;43.50;;;21.40;;
82869;SDS011;72645;47.136;15.420;2024-03-02T03:15:54;48.20;;;20.60;;
82869;SDS011;72645;47.136;15.420;2024-03-02T03:18:25;39.70;;;18.90;;
82869;SDS011;72645;47.136;15.420;2024-03-02T03:20:56;36.10;;;16.50;;
82869;SDS011;72645;47.136;15.420;2024-03-02T03:23:27;36.20;;;17.50;;
82869;SDS011;72645;47.136;15.420;2024-03-02T03:25:58;34.40;;;17.80;;
82869;SDS011;72645;47.136;15.420;2024-03-02T03:28:29;34.90;;;17.50;;
82869;SDS011;72645;47.136;15.420;2024-03-02T03:31:00;39.50;;;18.50;;
82869;SDS011;72645;47.136;15.420;2024-03-02T03:33:31;37.90;;;17.10;;
82869;SDS011;72645;47.136;15.420;2024-03-02T03:36:02;41.80;;;19.90;;
82869;SDS011;72645;47.136;15.420;2024-03-02T03:38:34;39.40;;;18.20;;
82869;SDS011;72645;47.136;15.420;2024-03-02T03:41:04;42.00;;;17.70;;
82869;SDS011;72645;47.136;15.420;2024-03-02T03:43:35;38.00;;;17.10;;
82869;SDS011;72645;47.136;15.420;2024-03-02T03:46:07;38.60;;;18.10;;
82869;SDS011;72645;47.136;15.420;2024-03-02T03:48:38;38.70;;;17.80;;
82869;SDS011;72645;47.136;15.420;2024-03-02T03:51:09;39.10;;;17.70;;
82869;SDS011;72645;47.136;15.420;2024-03-02T03:53:40;39.10;;;17.80;;
82869;SDS011;72645;47.136;15.420;2024-03-02T03:56:11;40.70;;;17.20;;
82869;SDS011;72645;47.136;15.420;2024-03-02T03:58:42;39.20;;;17.70;;
82869;SDS011;72645;47.136;15.420;2024-03-02T04:01:13;39.80;;;18.20;;
82869;SDS011;72645;47.136;15.420;2024-03-02T04:03:44;37.90;;;16.80;;
82869;SDS011;72645;47.136;15.420;2024-03-02T04:06:15;39.70;;;19.10;;
82869;SDS011;72645;47.136;15.420;2024-03-02T04:08:46;36.80;;;17.40;;
82869;SDS011;72645;47.136;15.420;2024-03-02T04:11:17;37.50;;;18.40;;
82869;SDS011;72645;47.136;15.420;2024-03-02T04:13:48;35.50;;;15.80;;
82869;SDS011;72645;47.136;15.420;2024-03-02T04:16:21;34.30;;;16.70;;
82869;SDS011;72645;47.136;15.420;2024-03-02T04:18:52;33.10;;;16.10;;
82869;SDS011;72645;47.136;15.420;2024-03-02T04:21:24;35.30;;;16.20;;
82869;SDS011;72645;47.136;15.420;2024-03-02T04:23:55;32.30;;;16.70;;
82869;SDS011;72645;47.136;15.420;2024-03-02T04:26:27;39.90;;;17.50;;
82869;SDS011;72645;47.136;15.420;2024-03-02T04:28:58;36.30;;;16.60;;
82869;SDS011;72645;47.136;15.420;2024-03-02T04:31:29;30.60;;;13.80;;
82869;SDS011;72645;47.136;15.420;2024-03-02T04:34:00;25.20;;;11.60;;
82869;SDS011;72645;47.136;15.420;2024-03-02T04:36:31;24.10;;;11.60;;
82869;SDS011;72645;47.136;15.420;2024-03-02T04:39:02;23.90;;;12.30;;
82869;SDS011;72645;47.136;15.420;2024-03-02T04:41:37;26.00;;;12.30;;
82869;SDS011;72645;47.136;15.420;2024-03-02T04:44:08;25.40;;;11.70;;
82869;SDS011;72645;47.136;15.420;2024-03-02T04:46:39;26.90;;;12.80;;
82869;SDS011;72645;47.136;15.420;2024-03-02T04:49:10;23.90;;;12.50;;
82869;SDS011;72645;47.136;15.420;2024-03-02T04:51:41;27.10;;;11.70;;
82869;SDS011;72645;47.136;15.420;2024-03-02T04:54:12;17.60;;;9.60;;
82869;SDS011;72645;47.136;15.420;2024-03-02T04:56:43;24.00;;;10.40;;
82869;SDS011;72645;47.136;15.420;2024-03-02T04:59:18;23.10;;;11.40;;
82869;SDS011;72645;47.136;15.420;2024-03-02T05:01:49;27.40;;;11.60;;
82869;SDS011;72645;47.136;15.420;2024-03-02T05:04:20;23.50;;;11.70;;
82869;SDS011;72645;47.136;15.420;2024-03-02T05:06:51;24.70;;;10.40;;
82869;SDS011;72645;47.136;15.420;2024-03-02T05:09:24;25.80;;;12.30;;
82869;SDS011;72645;47.136;15.420;2024-03-02T05:11:55;24.00;;;11.40;;
82869;SDS011;72645;47.136;15.420;2024-03-02T05:14:45;21.80;;;10.40;;
82869;SDS011;72645;47.136;15.420;2024-03-02T05:17:16;20.00;;;9.20;;
82869;SDS011;72645;47.136;15.420;2024-03-02T05:19:47;21.30;;;11.00;;
82869;SDS011;72645;47.136;15.420;2024-03-02T05:22:18;24.40;;;11.30;;
82869;SDS011;72645;47.136;15.420;2024-03-02T05:24:49;32.80;;;13.90;;
82869;SDS011;72645;47.136;15.420;2024-03-02T05:27:20;22.20;;;10.10;;
82869;SDS011;72645;47.136;15.420;2024-03-02T05:29:51;15.90;;;8.00;;
82869;SDS011;72645;47.136;15.420;2024-03-02T05:32:22;18.40;;;8.70;;
82869;SDS011;72645;47.136;15.420;2024-03-02T05:34:53;17.10;;;9.10;;
82869;SDS011;72645;47.136;15.420;2024-03-02T05:37:24;16.40;;;8.00;;
82869;SDS011;72645;47.136;15.420;2024-03-02T05:39:56;15.50;;;7.80;;
82869;SDS011;72645;47.136;15.420;2024-03-02T05:42:27;14.00;;;7.10;;
82869;SDS011;72645;47.136;15.420;2024-03-02T05:44:58;14.80;;;7.70;;
82869;SDS011;72645;47.136;15.420;2024-03-02T05:47:29;17.70;;;8.10;;
82869;SDS011;72645;47.136;15.420;2024-03-02T05:50:01;13.40;;;7.10;;
82869;SDS011;72645;47.136;15.420;2024-03-02T05:52:32;12.90;;;6.80;;
82869;SDS011;72645;47.136;15.420;2024-03-02T05:55:04;14.30;;;7.10;;
82869;SDS011;72645;47.136;15.420;2024-03-02T05:57:35;14.50;;;8.40;;
82869;SDS011;72645;47.136;15.420;2024-03-02T06:00:23;16.30;;;8.20;;
82869;SDS011;72645;47.136;15.420;2024-03-02T06:02:54;16.90;;;8.40;;
82869;SDS011;72645;47.136;15.420;2024-03-02T06:05:25;16.10;;;8.40;;
82869;SDS011;72645;47.136;15.420;2024-03-02T06:07:56;15.60;;;8.30;;
82869;SDS011;72645;47.136;15.420;2024-03-02T06:10:27;14.80;;;7.50;;
82869;SDS011;72645;47.136;15.420;2024-03-02T06:12:58;13.80;;;7.50;;
82869;SDS011;72645;47.136;15.420;2024-03-02T06:15:29;14.50;;;7.40;;
82869;SDS011;72645;47.136;15.420;2024-03-02T06:18:02;14.10;;;8.40;;
82869;SDS011;72645;47.136;15.420;2024-03-02T06:20:35;16.30;;;8.30;;
82869;SDS011;72645;47.136;15.420;2024-03-02T06:23:06;12.60;;;7.00;;
82869;SDS011;72645;47.136;15.420;2024-03-02T06:25:38;14.80;;;7.80;;
82869;SDS011;72645;47.136;15.420;2024-03-02T06:28:09;14.30;;;7.80;;
82869;SDS011;72645;47.136;15.420;2024-03-02T06:30:40;17.20;;;7.90;;
82869;SDS011;72645;47.136;15.420;2024-03-02T06:33:11;15.00;;;7.20;;
82869;SDS011;72645;47.136;15.420;2024-03-02T06:35:42;13.60;;;7.10;;
82869;SDS011;72645;47.136;15.420;2024-03-02T06:38:13;12.50;;;6.10;;
82869;SDS011;72645;47.136;15.420;2024-03-02T06:40:44;13.50;;;7.00;;
82869;SDS011;72645;47.136;15.420;2024-03-02T06:43:15;13.10;;;7.30;;
82869;SDS011;72645;47.136;15.420;2024-03-02T06:45:46;18.10;;;8.90;;
82869;SDS011;72645;47.136;15.420;2024-03-02T06:48:17;13.90;;;7.70;;
82869;SDS011;72645;47.136;15.420;2024-03-02T06:50:49;15.00;;;8.40;;
82869;SDS011;72645;47.136;15.420;2024-03-02T06:53:21;13.90;;;7.50;;
82869;SDS011;72645;47.136;15.420;2024-03-02T06:55:52;11.40;;;7.20;;
82869;SDS011;72645;47.136;15.420;2024-03-02T06:58:22;13.50;;;6.90;;
82869;SDS011;72645;47.136;15.420;2024-03-02T07:00:53;11.80;;;6.70;;
82869;SDS011;72645;47.136;15.420;2024-03-02T07:03:24;13.60;;;6.80;;
82869;SDS011;72645;47.136;15.420;2024-03-02T07:05:55;14.40;;;7.20;;
82869;SDS011;72645;47.136;15.420;2024-03-02T07:08:26;14.20;;;8.30;;
82869;SDS011;72645;47.136;15.420;2024-03-02T07:10:57;14.30;;;7.80;;
82869;SDS011;72645;47.136;15.420;2024-03-02T07:13:28;14.50;;;7.80;;
82869;SDS011;72645;47.136;15.420;2024-03-02T07:15:59;14.00;;;8.00;;
82869;SDS011;72645;47.136;15.420;2024-03-02T07:18:44;14.90;;;7.70;;
82869;SDS011;72645;47.136;15.420;2024-03-02T07:21:20;15.50;;;7.30;;
82869;SDS011;72645;47.136;15.420;2024-03-02T07:23:51;13.70;;;7.30;;
82869;SDS011;72645;47.136;15.420;2024-03-02T07:26:22;15.50;;;7.10;;
82869;SDS011;72645;47.136;15.420;2024-03-02T07:28:56;14.50;;;7.80;;
82869;SDS011;72645;47.136;15.420;2024-03-02T07:31:27;20.90;;;7.80;;
82869;SDS011;72645;47.136;15.420;2024-03-02T07:33:58;15.90;;;7.80;;
82869;SDS011;72645;47.136;15.420;2024-03-02T07:36:29;19.10;;;8.70;;
82869;SDS011;72645;47.136;15.420;2024-03-02T07:39:00;17.00;;;9.40;;
82869;SDS011;72645;47.136;15.420;2024-03-02T07:41:31;19.40;;;10.30;;
82869;SDS011;72645;47.136;15.420;2024-03-02T07:44:02;23.10;;;9.90;;
82869;SDS011;72645;47.136;15.420;2024-03-02T07:46:33;24.70;;;10.60;;
82869;SDS011;72645;47.136;15.420;2024-03-02T07:49:04;22.10;;;9.10;;
82869;SDS011;72645;47.136;15.420;2024-03-02T07:51:36;18.50;;;9.40;;
82869;SDS011;72645;47.136;15.420;2024-03-02T07:54:07;22.50;;;11.30;;
82869;SDS011;72645;47.136;15.420;2024-03-02T07:56:38;25.40;;;12.60;;
82869;SDS011;72645;47.136;15.420;2024-03-02T07:59:09;24.40;;;11.60;;
82869;SDS011;72645;47.136;15.420;2024-03-02T08:01:40;25.40;;;12.70;;
82869;SDS011;72645;47.136;15.420;2024-03-02T08:04:11;28.60;;;12.20;;
82869;SDS011;72645;47.136;15.420;2024-03-02T08:06:42;22.10;;;10.70;;
82869;SDS011;72645;47.136;15.420;2024-03-02T08:09:15;21.10;;;11.10;;
82869;SDS011;72645;47.136;15.420;2024-03-02T08:11:46;24.30;;;11.10;;
82869;SDS011;72645;47.136;15.420;2024-03-02T08:14:17;21.30;;;11.30;;
82869;SDS011;72645;47.136;15.420;2024-03-02T08:16:48;23.60;;;11.30;;
82869;SDS011;72645;47.136;15.420;2024-03-02T08:19:19;21.60;;;11.60;;
82869;SDS011;72645;47.136;15.420;2024-03-02T08:21:50;23.20;;;11.10;;
82869;SDS011;72645;47.136;15.420;2024-03-02T08:24:21;24.50;;;12.20;;
82869;SDS011;72645;47.136;15.420;2024-03-02T08:26:52;23.70;;;12.90;;
82869;SDS011;72645;47.136;15.420;2024-03-02T08:29:23;25.50;;;12.00;;
82869;SDS011;72645;47.136;15.420;2024-03-02T08:31:54;23.00;;;11.00;;
82869;SDS011;72645;47.136;15.420;2024-03-02T08:34:25;20.80;;;11.50;;
82869;SDS011;72645;47.136;15.420;2024-03-02T08:36:56;21.10;;;10.20;;
82869;SDS011;72645;47.136;15.420;2024-03-02T08:39:27;19.40;;;10.20;;
82869;SDS011;72645;47.136;15.420;2024-03-02T08:41:59;18.00;;;9.40;;
82869;SDS011;72645;47.136;15.420;2024-03-02T08:44:30;19.10;;;10.10;;
82869;SDS011;72645;47.136;15.420;2024-03-02T08:47:01;23.20;;;11.50;;
82869;SDS011;72645;47.136;15.420;2024-03-02T08:49:32;21.50;;;11.80;;
82869;SDS011;72645;47.136;15.420;2024-03-02T08:52:04;20.70;;;10.40;;
82869;SDS011;72645;47.136;15.420;2024-03-02T08:54:35;19.70;;;9.70;;
82869;SDS011;72645;47.136;15.420;2024-03-02T08:57:06;21.10;;;10.80;;
82869;SDS011;72645;47.136;15.420;2024-03-02T08:59:37;19.40;;;9.60;;
82869;SDS011;72645;47.136;15.420;2024-03-02T09:02:08;20.50;;;10.60;;
82869;SDS011;72645;47.136;15.420;2024-03-02T09:04:39;20.60;;;9.70;;
82869;SDS011;72645;47.136;15.420;2024-03-02T09:07:10;31.30;;;11.70;;
82869;SDS011;72645;47.136;15.420;2024-03-02T09:09:41;20.50;;;10.70;;
82869;SDS011;72645;47.136;15.420;2024-03-02T09:12:12;20.60;;;10.00;;
82869;SDS011;72645;47.136;15.420;2024-03-02T09:14:43;19.00;;;11.00;;
82869;SDS011;72645;47.136;15.420;2024-03-02T09:17:15;24.20;;;10.90;;
82869;SDS011;72645;47.136;15.420;2024-03-02T09:19:46;25.90;;;11.90;;
82869;SDS011;72645;47.136;15.420;2024-03-02T09:22:20;20.60;;;10.80;;
82869;SDS011;72645;47.136;15.420;2024-03-02T09:24:52;22.60;;;11.60;;
82869;SDS011;72645;47.136;15.420;2024-03-02T09:27:23;21.00;;;10.50;;
82869;SDS011;72645;47.136;15.420;2024-03-02T09:29:54;23.10;;;11.10;;
82869;SDS011;72645;47.136;15.420;2024-03-02T09:32:25;52.80;;;16.70;;
82869;SDS011;72645;47.136;15.420;2024-03-02T09:34:56;75.30;;;22.50;;
82869;SDS011;72645;47.136;15.420;2024-03-02T09:37:27;25.60;;;13.10;;
82869;SDS011;72645;47.136;15.420;2024-03-02T09:39:58;27.40;;;13.10;;
82869;SDS011;72645;47.136;15.420;2024-03-02T09:42:29;25.20;;;13.30;;
82869;SDS011;72645;47.136;15.420;2024-03-02T09:45:01;27.70;;;13.40;;
82869;SDS011;72645;47.136;15.420;2024-03-02T09:47:33;22.30;;;12.10;;
82869;SDS011;72645;47.136;15.420;2024-03-02T09:50:05;25.00;;;11.70;;
82869;SDS011;72645;47.136;15.420;2024-03-02T09:52:37;25.30;;;12.50;;
82869;SDS011;72645;47.136;15.420;2024-03-02T09:55:09;26.00;;;13.00;;
82869;SDS011;72645;47.136;15.420;2024-03-02T09:57:41;24.60;;;11.90;;
82869;SDS011;72645;47.136;15.420;2024-03-02T10:00:13;27.20;;;12.50;;
82869;SDS011;72645;47.136;15.420;2024-03-02T10:02:45;28.00;;;13.30;;
82869;SDS011;72645;47.136;15.420;2024-03-02T10:05:24;27.90;;;12.40;;
82869;SDS011;72645;47.136;15.420;2024-03-02T10:08:00;24.70;;;13.40;;
82869;SDS011;72645;47.136;15.420;2024-03-02T10:10:38;23.40;;;12.80;;
82869;SDS011;72645;47.136;15.420;2024-03-02T10:13:11;26.80;;;11.80;;
82869;SDS011;72645;47.136;15.420;2024-03-02T10:15:44;23.00;;;13.50;;
82869;SDS011;72645;47.136;15.420;2024-03-02T10:18:15;20.90;;;11.20;;
82869;SDS011;72645;47.136;15.420;2024-03-02T10:20:57;25.20;;;12.00;;
82869;SDS011;72645;47.136;15.420;2024-03-02T10:23:43;24.60;;;13.50;;
82869;SDS011;72645;47.136;15.420;2024-03-02T10:26:17;28.90;;;12.40;;
82869;SDS011;72645;47.136;15.420;2024-03-02T10:28:48;26.70;;;12.00;;
82869;SDS011;72645;47.136;15.420;2024-03-02T10:31:27;26.00;;;11.50;;
82869;SDS011;72645;47.136;15.420;2024-03-02T10:34:02;24.90;;;11.80;;
82869;SDS011;72645;47.136;15.420;2024-03-02T10:36:35;20.40;;;10.90;;
82869;SDS011;72645;47.136;15.420;2024-03-02T10:39:07;25.90;;;12.30;;
82869;SDS011;72645;47.136;15.420;2024-03-02T10:41:38;21.90;;;11.40;;
82869;SDS011;72645;47.136;15.420;2024-03-02T10:44:09;24.10;;;12.20;;
82869;SDS011;72645;47.136;15.420;2024-03-02T10:46:41;23.20;;;10.80;;
82869;SDS011;72645;47.136;15.420;2024-03-02T10:49:16;26.00;;;10.80;;
82869;SDS011;72645;47.136;15.420;2024-03-02T10:51:48;22.60;;;11.60;;
82869;SDS011;72645;47.136;15.420;2024-03-02T10:54:19;20.00;;;10.40;;
82869;SDS011;72645;47.136;15.420;2024-03-02T10:56:55;22.60;;;9.50;;
82869;SDS011;72645;47.136;15.420;2024-03-02T10:59:28;21.70;;;9.80;;
82869;SDS011;72645;47.136;15.420;2024-03-02T11:02:03;17.50;;;8.90;;
82869;SDS011;72645;47.136;15.420;2024-03-02T11:04:36;22.20;;;10.20;;
82869;SDS011;72645;47.136;15.420;2024-03-02T11:07:10;17.50;;;9.90;;
82869;SDS011;72645;47.136;15.420;2024-03-02T11:09:42;15.70;;;8.30;;
82869;SDS011;72645;47.136;15.420;2024-03-02T11:12:22;20.20;;;8.90;;
82869;SDS011;72645;47.136;15.420;2024-03-02T11:14:57;20.60;;;10.00;;
82869;SDS011;72645;47.136;15.420;2024-03-02T11:17:29;12.00;;;6.30;;
82869;SDS011;72645;47.136;15.420;2024-03-02T11:20:00;11.30;;;5.60;;
82869;SDS011;72645;47.136;15.420;2024-03-02T11:22:32;13.80;;;6.40;;
82869;SDS011;72645;47.136;15.420;2024-03-02T11:25:03;12.50;;;6.50;;
82869;SDS011;72645;47.136;15.420;2024-03-02T11:30:51;20.80;;;8.00;;
82869;SDS011;72645;47.136;15.420;2024-03-02T11:33:26;15.70;;;6.30;;
82869;SDS011;72645;47.136;15.420;2024-03-02T11:35:58;11.40;;;5.40;;
82869;SDS011;72645;47.136;15.420;2024-03-02T11:38:35;10.20;;;6.30;;
82869;SDS011;72645;47.136;15.420;2024-03-02T11:41:07;8.90;;;5.00;;
82869;SDS011;72645;47.136;15.420;2024-03-02T11:43:39;12.20;;;5.10;;
82869;SDS011;72645;47.136;15.420;2024-03-02T11:46:12;12.00;;;5.10;;
82869;SDS011;72645;47.136;15.420;2024-03-02T11:48:45;8.90;;;5.30;;
82869;SDS011;72645;47.136;15.420;2024-03-02T11:51:17;11.20;;;6.00;;
82869;SDS011;72645;47.136;15.420;2024-03-02T11:53:48;10.60;;;5.20;;
82869;SDS011;72645;47.136;15.420;2024-03-02T11:56:20;13.90;;;5.10;;
82869;SDS011;72645;47.136;15.420;2024-03-02T11:58:51;13.30;;;4.90;;
82869;SDS011;72645;47.136;15.420;2024-03-02T12:01:25;11.40;;;5.00;;
82869;SDS011;72645;47.136;15.420;2024-03-02T12:03:56;10.80;;;5.50;;
82869;SDS011;72645;47.136;15.420;2024-03-02T12:06:29;10.00;;;5.80;;
82869;SDS011;72645;47.136;15.420;2024-03-02T12:09:01;11.20;;;5.90;;
82869;SDS011;72645;47.136;15.420;2024-03-02T12:11:32;11.50;;;5.80;;
82869;SDS011;72645;47.136;15.420;2024-03-02T12:14:03;10.20;;;5.30;;
82869;SDS011;72645;47.136;15.420;2024-03-02T12:16:40;8.80;;;4.50;;
82869;SDS011;72645;47.136;15.420;2024-03-02T12:19:14;11.40;;;6.00;;
82869;SDS011;72645;47.136;15.420;2024-03-02T12:21:48;12.70;;;6.30;;
82869;SDS011;72645;47.136;15.420;2024-03-02T12:24:19;14.20;;;6.20;;
82869;SDS011;72645;47.136;15.420;2024-03-02T12:26:51;11.10;;;5.30;;
82869;SDS011;72645;47.136;15.420;2024-03-02T12:29:22;9.70;;;5.80;;
82869;SDS011;72645;47.136;15.420;2024-03-02T12:31:53;14.80;;;6.30;;
82869;SDS011;72645;47.136;15.420;2024-03-02T12:34:24;12.10;;;6.50;;
82869;SDS011;72645;47.136;15.420;2024-03-02T12:36:57;10.60;;;6.40;;
82869;SDS011;72645;47.136;15.420;2024-03-02T12:39:28;11.30;;;5.90;;
82869;SDS011;72645;47.136;15.420;2024-03-02T12:42:02;11.10;;;6.40;;
82869;SDS011;72645;47.136;15.420;2024-03-02T12:44:33;10.30;;;6.00;;
82869;SDS011;72645;47.136;15.420;2024-03-02T12:47:05;12.50;;;5.60;;
82869;SDS011;72645;47.136;15.420;2024-03-02T12:49:36;15.20;;;6.00;;
82869;SDS011;72645;47.136;15.420;2024-03-02T12:52:11;10.10;;;4.40;;
82869;SDS011;72645;47.136;15.420;2024-03-02T12:54:42;8.20;;;5.00;;
82869;SDS011;72645;47.136;15.420;2024-03-02T12:57:18;10.30;;;5.10;;
82869;SDS011;72645;47.136;15.420;2024-03-02T12:59:49;10.40;;;5.10;;
82869;SDS011;72645;47.136;15.420;2024-03-02T13:02:20;11.10;;;5.50;;
82869;SDS011;72645;47.136;15.420;2024-03-02T13:04:53;14.30;;;5.00;;
82869;SDS011;72645;47.136;15.420;2024-03-02T13:07:24;11.70;;;4.80;;
82869;SDS011;72645;47.136;15.420;2024-03-02T13:09:56;10.20;;;5.00;;
82869;SDS011;72645;47.136;15.420;2024-03-02T13:12:27;14.70;;;6.60;;
82869;SDS011;72645;47.136;15.420;2024-03-02T13:14:59;9.80;;;6.20;;
82869;SDS011;72645;47.136;15.420;2024-03-02T13:17:35;9.60;;;5.50;;
82869;SDS011;72645;47.136;15.420;2024-03-02T13:20:08;11.00;;;5.80;;
82869;SDS011;72645;47.136;15.420;2024-03-02T13:22:39;11.20;;;4.70;;
82869;SDS011;72645;47.136;15.420;2024-03-02T13:25:10;10.90;;;5.00;;
82869;SDS011;72645;47.136;15.420;2024-03-02T13:27:43;11.20;;;4.70;;
82869;SDS011;72645;47.136;15.420;2024-03-02T13:30:14;11.00;;;4.30;;
82869;SDS011;72645;47.136;15.420;2024-03-02T13:32:45;8.70;;;4.80;;
82869;SDS011;72645;47.136;15.420;2024-03-02T13:35:16;9.60;;;4.50;;
82869;SDS011;72645;47.136;15.420;2024-03-02T13:37:47;7.10;;;3.80;;
82869;SDS011;72645;47.136;15.420;2024-03-02T13:40:18;8.60;;;4.30;;
82869;SDS011;72645;47.136;15.420;2024-03-02T13:42:51;9.60;;;5.00;;
82869;SDS011;72645;47.136;15.420;2024-03-02T13:45:22;9.70;;;4.00;;
82869;SDS011;72645;47.136;15.420;2024-03-02T13:47:53;9.60;;;4.90;;
82869;SDS011;72645;47.136;15.420;2024-03-02T13:50:25;9.60;;;4.00;;
82869;SDS011;72645;47.136;15.420;2024-03-02T13:52:57;9.20;;;4.70;;
82869;SDS011;72645;47.136;15.420;2024-03-02T13:55:28;10.10;;;4.60;;
82869;SDS011;72645;47.136;15.420;2024-03-02T13:57:59;12.40;;;5.00;;
82869;SDS011;72645;47.136;15.420;2024-03-02T14:00:30;8.40;;;4.40;;
82869;SDS011;72645;47.136;15.420;2024-03-02T14:03:02;9.60;;;4.80;;
82869;SDS011;72645;47.136;15.420;2024-03-02T14:05:33;8.30;;;3.80;;
82869;SDS011;72645;47.136;15.420;2024-03-02T14:08:05;8.70;;;4.30;;
82869;SDS011;72645;47.136;15.420;2024-03-02T14:10:36;8.90;;;4.90;;
82869;SDS011;72645;47.136;15.420;2024-03-02T14:13:07;11.90;;;5.10;;
82869;SDS011;72645;47.136;15.420;2024-03-02T14:15:38;8.50;;;4.10;;
82869;SDS011;72645;47.136;15.420;2024-03-02T14:18:10;6.60;;;4.20;;
82869;SDS011;72645;47.136;15.420;2024-03-02T14:20:41;6.90;;;4.50;;
82869;SDS011;72645;47.136;15.420;2024-03-02T14:23:13;7.80;;;4.00;;
82869;SDS011;72645;47.136;15.420;2024-03-02T14:25:44;8.70;;;4.60;;
82869;SDS011;72645;47.136;15.420;2024-03-02T14:28:15;7.80;;;4.20;;
82869;SDS011;72645;47.136;15.420;2024-03-02T14:31:07;10.30;;;4.30;;
82869;SDS011;72645;47.136;15.420;2024-03-02T14:33:38;8.20;;;4.40;;
82869;SDS011;72645;47.136;15.420;2024-03-02T14:36:10;7.50;;;4.40;;
82869;SDS011;72645;47.136;15.420;2024-03-02T14:38:41;8.70;;;4.80;;
82869;SDS011;72645;47.136;15.420;2024-03-02T14:41:12;7.20;;;4.00;;
82869;SDS011;72645;47.136;15.420;2024-03-02T14:43:43;8.20;;;3.90;;
82869;SDS011;72645;47.136;15.420;2024-03-02T14:46:16;8.80;;;4.60;;